sensor_id;sensor_type;location;lat;lon;timestamp;P1;durP1;ratioP1;P2;durP2;ratioP2
22652;SDS011;11493;43.344;26.226;2023-02-28T00:01:29;6.60;;;5.25;;
22652;SDS011;11493;43.344;26.226;2023-02-28T00:03:57;5.97;;;5.38;;
22652;SDS011;11493;43.344;26.226;2023-02-28T00:06:24;7.07;;;6.00;;
22652;SDS011;11493;43.344;26.226;2023-02-28T00:08:52;8.02;;;6.13;;
22652;SDS011;11493;43.344;26.226;2023-02-28T00:11:19;6.57;;;5.72;;
22652;SDS011;11493;43.344;26.226;2023-02-28T00:13:47;10.35;;;5.60;;
22652;SDS011;11493;43.344;26.226;2023-02-28T00:16:16;8.43;;;5.53;;
22652;SDS011;11493;43.344;26.226;2023-02-28T00:18:45;7.72;;;5.65;;
22652;SDS011;11493;43.344;26.226;2023-02-28T00:21:14;7.60;;;5.85;;
22652;SDS011;11493;43.344;26.226;2023-02-28T00:23:42;8.05;;;5.80;;
22652;SDS011;11493;43.344;26.226;2023-02-28T00:26:09;5.47;;;4.97;;
22652;SDS011;11493;43.344;26.226;2023-02-28T00:28:37;7.15;;;5.13;;
22652;SDS011;11493;43.344;26.226;2023-02-28T00:31:04;9.13;;;5.35;;
22652;SDS011;11493;43.344;26.226;2023-02-28T00:33:31;8.88;;;6.57;;
22652;SDS011;11493;43.344;26.226;2023-02-28T00:36:17;6.85;;;5.90;;
22652;SDS011;11493;43.344;26.226;2023-02-28T00:38:44;8.45;;;5.80;;
22652;SDS011;11493;43.344;26.226;2023-02-28T00:41:11;9.73;;;6.63;;
22652;SDS011;11493;43.344;26.226;2023-02-28T00:43:39;6.03;;;4.97;;
22652;SDS011;11493;43.344;26.226;2023-02-28T00:46:07;6.32;;;5.13;;
22652;SDS011;11493;43.344;26.226;2023-02-28T00:48:34;5.88;;;5.15;;
22652;SDS011;11493;43.344;26.226;2023-02-28T00:51:02;5.95;;;4.60;;
22652;SDS011;11493;43.344;26.226;2023-02-28T00:53:30;8.02;;;5.22;;
22652;SDS011;11493;43.344;26.226;2023-02-28T00:55:58;5.38;;;4.50;;
22652;SDS011;11493;43.344;26.226;2023-02-28T00:58:26;6.75;;;4.20;;
22652;SDS011;11493;43.344;26.226;2023-02-28T01:00:53;5.15;;;4.22;;
22652;SDS011;11493;43.344;26.226;2023-02-28T01:03:20;5.85;;;4.20;;
22652;SDS011;11493;43.344;26.226;2023-02-28T01:05:48;9.93;;;6.40;;
22652;SDS011;11493;43.344;26.226;2023-02-28T01:08:15;5.93;;;4.57;;
22652;SDS011;11493;43.344;26.226;2023-02-28T01:10:42;5.85;;;4.20;;
22652;SDS011;11493;43.344;26.226;2023-02-28T01:13:10;5.38;;;3.53;;
22652;SDS011;11493;43.344;26.226;2023-02-28T01:15:46;7.65;;;3.72;;
22652;SDS011;11493;43.344;26.226;2023-02-28T01:18:19;6.57;;;4.25;;
22652;SDS011;11493;43.344;26.226;2023-02-28T01:20:47;3.50;;;3.08;;
22652;SDS011;11493;43.344;26.226;2023-02-28T01:23:15;9.00;;;4.88;;
22652;SDS011;11493;43.344;26.226;2023-02-28T01:25:42;4.05;;;2.95;;
22652;SDS011;11493;43.344;26.226;2023-02-28T01:28:09;6.00;;;3.47;;
22652;SDS011;11493;43.344;26.226;2023-02-28T01:30:36;4.80;;;2.90;;
22652;SDS011;11493;43.344;26.226;2023-02-28T01:33:05;3.33;;;2.70;;
22652;SDS011;11493;43.344;26.226;2023-02-28T01:35:32;7.13;;;3.63;;
22652;SDS011;11493;43.344;26.226;2023-02-28T01:38:01;5.97;;;3.70;;
22652;SDS011;11493;43.344;26.226;2023-02-28T01:40:46;3.80;;;3.45;;
22652;SDS011;11493;43.344;26.226;2023-02-28T01:43:29;4.25;;;3.53;;
22652;SDS011;11493;43.344;26.226;2023-02-28T01:46:16;4.30;;;3.70;;
22652;SDS011;11493;43.344;26.226;2023-02-28T01:48:46;4.50;;;3.50;;
22652;SDS011;11493;43.344;26.226;2023-02-28T01:51:21;3.80;;;3.40;;
22652;SDS011;11493;43.344;26.226;2023-02-28T01:53:58;3.90;;;3.30;;
22652;SDS011;11493;43.344;26.226;2023-02-28T01:56:30;3.95;;;3.60;;
22652;SDS011;11493;43.344;26.226;2023-02-28T01:59:00;4.78;;;3.42;;
22652;SDS011;11493;43.344;26.226;2023-02-28T02:01:28;14.98;;;8.05;;
22652;SDS011;11493;43.344;26.226;2023-02-28T02:04:01;15.25;;;8.93;;
22652;SDS011;11493;43.344;26.226;2023-02-28T02:06:38;10.23;;;6.78;;
22652;SDS011;11493;43.344;26.226;2023-02-28T02:11:37;16.45;;;8.65;;
22652;SDS011;11493;43.344;26.226;2023-02-28T02:31:31;6.28;;;4.32;;
22652;SDS011;11493;43.344;26.226;2023-02-28T02:39:40;5.95;;;4.25;;
22652;SDS011;11493;43.344;26.226;2023-02-28T02:42:21;7.93;;;3.90;;
22652;SDS011;11493;43.344;26.226;2023-02-28T02:45:07;4.15;;;3.75;;
22652;SDS011;11493;43.344;26.226;2023-02-28T02:47:38;5.68;;;4.15;;
22652;SDS011;11493;43.344;26.226;2023-02-28T02:50:07;4.70;;;4.20;;
22652;SDS011;11493;43.344;26.226;2023-02-28T02:52:42;8.38;;;4.30;;
22652;SDS011;11493;43.344;26.226;2023-02-28T02:55:16;8.45;;;6.47;;
22652;SDS011;11493;43.344;26.226;2023-02-28T03:00:19;8.63;;;5.18;;
22652;SDS011;11493;43.344;26.226;2023-02-28T03:02:50;10.13;;;6.03;;
22652;SDS011;11493;43.344;26.226;2023-02-28T03:05:41;8.43;;;6.80;;
22652;SDS011;11493;43.344;26.226;2023-02-28T03:08:12;9.77;;;6.63;;
22652;SDS011;11493;43.344;26.226;2023-02-28T03:10:45;11.43;;;7.38;;
22652;SDS011;11493;43.344;26.226;2023-02-28T03:27:28;13.65;;;8.13;;
22652;SDS011;11493;43.344;26.226;2023-02-28T03:30:16;8.30;;;5.53;;
22652;SDS011;11493;43.344;26.226;2023-02-28T03:32:58;5.50;;;4.60;;
22652;SDS011;11493;43.344;26.226;2023-02-28T03:35:47;5.18;;;4.72;;
22652;SDS011;11493;43.344;26.226;2023-02-28T03:38:33;4.40;;;4.00;;
22652;SDS011;11493;43.344;26.226;2023-02-28T03:41:05;5.80;;;4.45;;
22652;SDS011;11493;43.344;26.226;2023-02-28T03:43:41;6.13;;;4.97;;
22652;SDS011;11493;43.344;26.226;2023-02-28T03:46:13;6.15;;;5.18;;
22652;SDS011;11493;43.344;26.226;2023-02-28T03:48:45;7.43;;;4.35;;
22652;SDS011;11493;43.344;26.226;2023-02-28T03:51:18;5.40;;;4.90;;
22652;SDS011;11493;43.344;26.226;2023-02-28T03:56:53;4.28;;;3.88;;
22652;SDS011;11493;43.344;26.226;2023-02-28T04:01:53;6.07;;;4.80;;
22652;SDS011;11493;43.344;26.226;2023-02-28T04:04:21;5.80;;;4.20;;
22652;SDS011;11493;43.344;26.226;2023-02-28T04:06:49;4.55;;;4.05;;
22652;SDS011;11493;43.344;26.226;2023-02-28T04:09:18;7.47;;;5.68;;
22652;SDS011;11493;43.344;26.226;2023-02-28T04:11:46;4.32;;;3.92;;
22652;SDS011;11493;43.344;26.226;2023-02-28T04:14:18;6.22;;;4.65;;
22652;SDS011;11493;43.344;26.226;2023-02-28T04:16:45;4.60;;;4.15;;
22652;SDS011;11493;43.344;26.226;2023-02-28T04:19:12;6.97;;;5.05;;
22652;SDS011;11493;43.344;26.226;2023-02-28T04:21:41;6.90;;;5.47;;
22652;SDS011;11493;43.344;26.226;2023-02-28T04:24:11;6.28;;;5.68;;
22652;SDS011;11493;43.344;26.226;2023-02-28T04:26:44;5.10;;;4.60;;
22652;SDS011;11493;43.344;26.226;2023-02-28T04:29:13;7.00;;;6.00;;
22652;SDS011;11493;43.344;26.226;2023-02-28T04:31:44;12.90;;;8.40;;
22652;SDS011;11493;43.344;26.226;2023-02-28T04:34:11;6.97;;;5.50;;
22652;SDS011;11493;43.344;26.226;2023-02-28T04:36:38;4.75;;;4.28;;
22652;SDS011;11493;43.344;26.226;2023-02-28T04:39:05;4.78;;;4.35;;
22652;SDS011;11493;43.344;26.226;2023-02-28T04:41:33;9.18;;;4.80;;
22652;SDS011;11493;43.344;26.226;2023-02-28T04:44:00;5.20;;;4.70;;
22652;SDS011;11493;43.344;26.226;2023-02-28T04:46:27;6.78;;;6.07;;
22652;SDS011;11493;43.344;26.226;2023-02-28T04:48:54;5.00;;;4.50;;
22652;SDS011;11493;43.344;26.226;2023-02-28T04:51:22;6.28;;;5.68;;
22652;SDS011;11493;43.344;26.226;2023-02-28T04:53:49;5.88;;;5.28;;
22652;SDS011;11493;43.344;26.226;2023-02-28T04:56:16;6.20;;;5.60;;
22652;SDS011;11493;43.344;26.226;2023-02-28T04:58:44;6.60;;;6.00;;
22652;SDS011;11493;43.344;26.226;2023-02-28T05:01:19;6.15;;;5.55;;
22652;SDS011;11493;43.344;26.226;2023-02-28T05:03:49;5.40;;;4.90;;
22652;SDS011;11493;43.344;26.226;2023-02-28T05:06:18;6.38;;;5.85;;
22652;SDS011;11493;43.344;26.226;2023-02-28T05:08:46;5.88;;;5.32;;
22652;SDS011;11493;43.344;26.226;2023-02-28T05:11:19;4.68;;;4.28;;
22652;SDS011;11493;43.344;26.226;2023-02-28T05:13:51;5.53;;;5.03;;
22652;SDS011;11493;43.344;26.226;2023-02-28T05:16:19;8.00;;;5.00;;
22652;SDS011;11493;43.344;26.226;2023-02-28T05:18:46;5.53;;;5.03;;
22652;SDS011;11493;43.344;26.226;2023-02-28T05:21:33;8.02;;;5.30;;
22652;SDS011;11493;43.344;26.226;2023-02-28T05:24:02;11.75;;;6.50;;
22652;SDS011;11493;43.344;26.226;2023-02-28T05:26:33;12.88;;;7.97;;
22652;SDS011;11493;43.344;26.226;2023-02-28T05:29:02;9.52;;;7.40;;
22652;SDS011;11493;43.344;26.226;2023-02-28T05:31:29;13.10;;;8.73;;
22652;SDS011;11493;43.344;26.226;2023-02-28T05:33:56;16.85;;;8.82;;
22652;SDS011;11493;43.344;26.226;2023-02-28T05:36:23;7.53;;;6.53;;
22652;SDS011;11493;43.344;26.226;2023-02-28T05:38:51;10.35;;;6.30;;
22652;SDS011;11493;43.344;26.226;2023-02-28T05:41:19;10.57;;;8.43;;
22652;SDS011;11493;43.344;26.226;2023-02-28T05:43:47;7.05;;;5.95;;
22652;SDS011;11493;43.344;26.226;2023-02-28T05:46:14;6.47;;;5.55;;
22652;SDS011;11493;43.344;26.226;2023-02-28T05:48:42;5.95;;;5.45;;
22652;SDS011;11493;43.344;26.226;2023-02-28T05:51:12;7.30;;;6.55;;
22652;SDS011;11493;43.344;26.226;2023-02-28T05:53:38;6.82;;;6.13;;
22652;SDS011;11493;43.344;26.226;2023-02-28T05:56:06;7.13;;;6.30;;
22652;SDS011;11493;43.344;26.226;2023-02-28T05:58:33;6.75;;;6.15;;
22652;SDS011;11493;43.344;26.226;2023-02-28T06:01:18;8.93;;;6.22;;
22652;SDS011;11493;43.344;26.226;2023-02-28T06:03:47;7.78;;;5.85;;
22652;SDS011;11493;43.344;26.226;2023-02-28T06:06:14;8.18;;;6.57;;
22652;SDS011;11493;43.344;26.226;2023-02-28T06:08:41;6.70;;;5.95;;
22652;SDS011;11493;43.344;26.226;2023-02-28T06:11:09;7.68;;;6.28;;
22652;SDS011;11493;43.344;26.226;2023-02-28T06:13:36;11.43;;;7.97;;
22652;SDS011;11493;43.344;26.226;2023-02-28T06:16:03;12.38;;;6.90;;
22652;SDS011;11493;43.344;26.226;2023-02-28T06:18:30;8.90;;;7.43;;
22652;SDS011;11493;43.344;26.226;2023-02-28T06:20:58;9.52;;;7.30;;
22652;SDS011;11493;43.344;26.226;2023-02-28T06:23:25;10.45;;;7.45;;
22652;SDS011;11493;43.344;26.226;2023-02-28T06:25:52;9.35;;;7.25;;
22652;SDS011;11493;43.344;26.226;2023-02-28T06:28:19;9.02;;;7.53;;
22652;SDS011;11493;43.344;26.226;2023-02-28T06:30:46;11.23;;;7.07;;
22652;SDS011;11493;43.344;26.226;2023-02-28T06:33:13;8.10;;;6.90;;
22652;SDS011;11493;43.344;26.226;2023-02-28T06:35:43;8.70;;;6.72;;
22652;SDS011;11493;43.344;26.226;2023-02-28T06:38:11;8.50;;;6.95;;
22652;SDS011;11493;43.344;26.226;2023-02-28T06:40:38;7.40;;;6.55;;
22652;SDS011;11493;43.344;26.226;2023-02-28T06:43:05;9.75;;;6.75;;
22652;SDS011;11493;43.344;26.226;2023-02-28T06:45:32;9.07;;;6.75;;
22652;SDS011;11493;43.344;26.226;2023-02-28T06:47:59;9.85;;;7.30;;
22652;SDS011;11493;43.344;26.226;2023-02-28T06:50:26;9.02;;;7.20;;
22652;SDS011;11493;43.344;26.226;2023-02-28T06:52:56;8.13;;;6.70;;
22652;SDS011;11493;43.344;26.226;2023-02-28T06:55:23;10.23;;;8.25;;
22652;SDS011;11493;43.344;26.226;2023-02-28T06:57:50;14.65;;;7.88;;
22652;SDS011;11493;43.344;26.226;2023-02-28T07:00:17;13.90;;;9.30;;
22652;SDS011;11493;43.344;26.226;2023-02-28T07:02:44;12.30;;;8.60;;
22652;SDS011;11493;43.344;26.226;2023-02-28T07:05:11;10.80;;;8.55;;
22652;SDS011;11493;43.344;26.226;2023-02-28T07:07:38;9.57;;;7.65;;
22652;SDS011;11493;43.344;26.226;2023-02-28T07:10:07;18.08;;;9.75;;
22652;SDS011;11493;43.344;26.226;2023-02-28T07:12:34;11.40;;;8.15;;
22652;SDS011;11493;43.344;26.226;2023-02-28T07:15:03;18.25;;;9.68;;
22652;SDS011;11493;43.344;26.226;2023-02-28T07:17:31;15.10;;;9.57;;
22652;SDS011;11493;43.344;26.226;2023-02-28T07:19:58;18.73;;;12.10;;
22652;SDS011;11493;43.344;26.226;2023-02-28T07:22:25;13.82;;;9.95;;
22652;SDS011;11493;43.344;26.226;2023-02-28T07:24:52;25.20;;;13.68;;
22652;SDS011;11493;43.344;26.226;2023-02-28T07:27:20;17.15;;;11.00;;
22652;SDS011;11493;43.344;26.226;2023-02-28T07:29:50;16.20;;;9.75;;
22652;SDS011;11493;43.344;26.226;2023-02-28T07:32:17;22.42;;;10.90;;
22652;SDS011;11493;43.344;26.226;2023-02-28T07:34:45;13.57;;;9.45;;
22652;SDS011;11493;43.344;26.226;2023-02-28T07:37:12;21.90;;;12.20;;
22652;SDS011;11493;43.344;26.226;2023-02-28T07:39:39;32.35;;;18.00;;
22652;SDS011;11493;43.344;26.226;2023-02-28T07:42:08;50.67;;;22.80;;
22652;SDS011;11493;43.344;26.226;2023-02-28T07:44:38;31.30;;;15.00;;
22652;SDS011;11493;43.344;26.226;2023-02-28T07:47:07;19.48;;;11.55;;
22652;SDS011;11493;43.344;26.226;2023-02-28T07:49:35;19.90;;;13.32;;
22652;SDS011;11493;43.344;26.226;2023-02-28T07:52:06;18.23;;;12.48;;
22652;SDS011;11493;43.344;26.226;2023-02-28T07:54:33;27.27;;;13.18;;
22652;SDS011;11493;43.344;26.226;2023-02-28T07:57:00;20.33;;;11.57;;
22652;SDS011;11493;43.344;26.226;2023-02-28T07:59:27;17.50;;;11.63;;
22652;SDS011;11493;43.344;26.226;2023-02-28T08:01:58;23.05;;;13.10;;
22652;SDS011;11493;43.344;26.226;2023-02-28T08:04:26;19.30;;;11.65;;
22652;SDS011;11493;43.344;26.226;2023-02-28T08:06:53;17.77;;;11.40;;
22652;SDS011;11493;43.344;26.226;2023-02-28T08:09:20;14.73;;;10.15;;
22652;SDS011;11493;43.344;26.226;2023-02-28T08:11:47;14.77;;;10.52;;
22652;SDS011;11493;43.344;26.226;2023-02-28T08:14:14;16.02;;;11.65;;
22652;SDS011;11493;43.344;26.226;2023-02-28T08:16:41;18.73;;;12.73;;
22652;SDS011;11493;43.344;26.226;2023-02-28T08:19:09;18.52;;;11.82;;
22652;SDS011;11493;43.344;26.226;2023-02-28T08:21:36;17.30;;;12.63;;
22652;SDS011;11493;43.344;26.226;2023-02-28T08:24:03;17.17;;;11.45;;
22652;SDS011;11493;43.344;26.226;2023-02-28T08:26:30;22.73;;;12.43;;
22652;SDS011;11493;43.344;26.226;2023-02-28T08:28:57;20.15;;;12.65;;
22652;SDS011;11493;43.344;26.226;2023-02-28T08:31:27;26.40;;;15.10;;
22652;SDS011;11493;43.344;26.226;2023-02-28T08:33:54;27.83;;;15.00;;
22652;SDS011;11493;43.344;26.226;2023-02-28T08:36:23;21.83;;;13.13;;
22652;SDS011;11493;43.344;26.226;2023-02-28T08:38:50;24.45;;;15.90;;
22652;SDS011;11493;43.344;26.226;2023-02-28T08:41:17;24.08;;;15.20;;
22652;SDS011;11493;43.344;26.226;2023-02-28T08:43:44;31.90;;;18.27;;
22652;SDS011;11493;43.344;26.226;2023-02-28T08:46:12;23.52;;;15.35;;
22652;SDS011;11493;43.344;26.226;2023-02-28T08:48:40;17.77;;;12.18;;
22652;SDS011;11493;43.344;26.226;2023-02-28T08:51:14;14.38;;;10.23;;
22652;SDS011;11493;43.344;26.226;2023-02-28T08:53:45;14.48;;;10.77;;
22652;SDS011;11493;43.344;26.226;2023-02-28T08:56:12;16.42;;;11.55;;
22652;SDS011;11493;43.344;26.226;2023-02-28T08:58:40;15.73;;;10.63;;
22652;SDS011;11493;43.344;26.226;2023-02-28T09:01:09;18.30;;;11.88;;
22652;SDS011;11493;43.344;26.226;2023-02-28T09:03:37;16.60;;;11.98;;
22652;SDS011;11493;43.344;26.226;2023-02-28T09:06:04;14.05;;;10.05;;
22652;SDS011;11493;43.344;26.226;2023-02-28T09:08:31;10.32;;;8.73;;
22652;SDS011;11493;43.344;26.226;2023-02-28T09:10:59;14.73;;;9.98;;
22652;SDS011;11493;43.344;26.226;2023-02-28T09:13:29;17.30;;;12.30;;
22652;SDS011;11493;43.344;26.226;2023-02-28T09:15:59;14.10;;;9.93;;
22652;SDS011;11493;43.344;26.226;2023-02-28T09:18:28;15.70;;;10.52;;
22652;SDS011;11493;43.344;26.226;2023-02-28T09:20:56;11.88;;;8.85;;
22652;SDS011;11493;43.344;26.226;2023-02-28T09:23:24;18.95;;;10.77;;
22652;SDS011;11493;43.344;26.226;2023-02-28T09:25:52;13.95;;;10.13;;
22652;SDS011;11493;43.344;26.226;2023-02-28T09:28:21;10.25;;;8.70;;
22652;SDS011;11493;43.344;26.226;2023-02-28T09:30:49;22.08;;;10.43;;
22652;SDS011;11493;43.344;26.226;2023-02-28T09:33:21;13.98;;;11.68;;
22652;SDS011;11493;43.344;26.226;2023-02-28T09:35:49;13.27;;;9.55;;
22652;SDS011;11493;43.344;26.226;2023-02-28T09:38:17;38.53;;;19.65;;
22652;SDS011;11493;43.344;26.226;2023-02-28T09:40:51;35.60;;;19.08;;
22652;SDS011;11493;43.344;26.226;2023-02-28T09:43:23;22.27;;;16.58;;
22652;SDS011;11493;43.344;26.226;2023-02-28T09:48:54;17.25;;;11.50;;
22652;SDS011;11493;43.344;26.226;2023-02-28T09:54:04;15.65;;;11.85;;
22652;SDS011;11493;43.344;26.226;2023-02-28T10:06:56;15.82;;;10.40;;
22652;SDS011;11493;43.344;26.226;2023-02-28T10:09:25;17.90;;;14.55;;
22652;SDS011;11493;43.344;26.226;2023-02-28T10:11:57;10.73;;;7.47;;
22652;SDS011;11493;43.344;26.226;2023-02-28T10:14:32;9.68;;;7.60;;
22652;SDS011;11493;43.344;26.226;2023-02-28T10:17:11;9.35;;;7.22;;
22652;SDS011;11493;43.344;26.226;2023-02-28T10:25:35;9.98;;;7.63;;
22652;SDS011;11493;43.344;26.226;2023-02-28T10:28:10;17.17;;;8.07;;
22652;SDS011;11493;43.344;26.226;2023-02-28T10:30:43;12.48;;;10.10;;
22652;SDS011;11493;43.344;26.226;2023-02-28T10:33:18;14.20;;;8.18;;
22652;SDS011;11493;43.344;26.226;2023-02-28T10:35:49;12.80;;;8.73;;
22652;SDS011;11493;43.344;26.226;2023-02-28T10:38:21;10.43;;;7.05;;
22652;SDS011;11493;43.344;26.226;2023-02-28T10:40:50;14.70;;;8.10;;
22652;SDS011;11493;43.344;26.226;2023-02-28T10:43:19;15.63;;;8.60;;
22652;SDS011;11493;43.344;26.226;2023-02-28T10:48:28;14.70;;;9.75;;
22652;SDS011;11493;43.344;26.226;2023-02-28T10:51:01;12.68;;;8.82;;
22652;SDS011;11493;43.344;26.226;2023-02-28T10:53:31;18.70;;;8.85;;
22652;SDS011;11493;43.344;26.226;2023-02-28T10:56:21;20.88;;;13.27;;
22652;SDS011;11493;43.344;26.226;2023-02-28T10:58:55;13.98;;;8.43;;
22652;SDS011;11493;43.344;26.226;2023-02-28T11:06:46;15.88;;;9.55;;
22652;SDS011;11493;43.344;26.226;2023-02-28T11:11:47;14.38;;;10.65;;
22652;SDS011;11493;43.344;26.226;2023-02-28T11:14:25;20.20;;;13.52;;
22652;SDS011;11493;43.344;26.226;2023-02-28T11:16:58;18.50;;;9.95;;
22652;SDS011;11493;43.344;26.226;2023-02-28T11:19:40;16.70;;;11.35;;
22652;SDS011;11493;43.344;26.226;2023-02-28T11:22:15;21.33;;;12.95;;
22652;SDS011;11493;43.344;26.226;2023-02-28T11:24:51;24.23;;;15.52;;
22652;SDS011;11493;43.344;26.226;2023-02-28T11:30:00;16.88;;;10.13;;
22652;SDS011;11493;43.344;26.226;2023-02-28T11:32:27;15.10;;;10.18;;
22652;SDS011;11493;43.344;26.226;2023-02-28T11:35:04;12.05;;;8.27;;
22652;SDS011;11493;43.344;26.226;2023-02-28T11:37:44;21.42;;;9.88;;
22652;SDS011;11493;43.344;26.226;2023-02-28T11:40:15;13.23;;;10.25;;
22652;SDS011;11493;43.344;26.226;2023-02-28T11:42:59;16.02;;;9.90;;
22652;SDS011;11493;43.344;26.226;2023-02-28T11:45:39;21.85;;;11.90;;
22652;SDS011;11493;43.344;26.226;2023-02-28T11:48:20;13.68;;;9.82;;
22652;SDS011;11493;43.344;26.226;2023-02-28T11:53:45;19.42;;;13.45;;
22652;SDS011;11493;43.344;26.226;2023-02-28T11:56:37;22.38;;;12.60;;
22652;SDS011;11493;43.344;26.226;2023-02-28T12:05:01;20.08;;;14.80;;
22652;SDS011;11493;43.344;26.226;2023-02-28T12:10:26;27.63;;;14.25;;
22652;SDS011;11493;43.344;26.226;2023-02-28T12:13:02;31.08;;;15.85;;
22652;SDS011;11493;43.344;26.226;2023-02-28T12:18:13;26.13;;;16.05;;
22652;SDS011;11493;43.344;26.226;2023-02-28T12:26:43;18.80;;;12.95;;
22652;SDS011;11493;43.344;26.226;2023-02-28T12:37:44;18.55;;;13.98;;
22652;SDS011;11493;43.344;26.226;2023-02-28T12:40:21;30.27;;;18.90;;
22652;SDS011;11493;43.344;26.226;2023-02-28T12:43:03;25.60;;;17.13;;
22652;SDS011;11493;43.344;26.226;2023-02-28T12:48:05;25.20;;;16.10;;
22652;SDS011;11493;43.344;26.226;2023-02-28T12:50:35;34.42;;;20.75;;
22652;SDS011;11493;43.344;26.226;2023-02-28T12:53:06;35.20;;;21.00;;
22652;SDS011;11493;43.344;26.226;2023-02-28T12:56:01;24.05;;;16.23;;
22652;SDS011;11493;43.344;26.226;2023-02-28T13:09:54;33.28;;;20.92;;
22652;SDS011;11493;43.344;26.226;2023-02-28T13:12:24;33.25;;;20.17;;
22652;SDS011;11493;43.344;26.226;2023-02-28T13:14:51;47.70;;;28.77;;
22652;SDS011;11493;43.344;26.226;2023-02-28T13:17:38;35.22;;;20.02;;
22652;SDS011;11493;43.344;26.226;2023-02-28T13:20:21;38.72;;;22.92;;
22652;SDS011;11493;43.344;26.226;2023-02-28T13:22:53;41.85;;;26.13;;
22652;SDS011;11493;43.344;26.226;2023-02-28T13:27:49;31.65;;;19.98;;
22652;SDS011;11493;43.344;26.226;2023-02-28T13:33:26;37.55;;;19.65;;
22652;SDS011;11493;43.344;26.226;2023-02-28T13:38:49;32.63;;;19.85;;
22652;SDS011;11493;43.344;26.226;2023-02-28T13:46:29;36.17;;;20.45;;
22652;SDS011;11493;43.344;26.226;2023-02-28T13:49:18;33.83;;;20.05;;
22652;SDS011;11493;43.344;26.226;2023-02-28T13:59:59;32.30;;;20.05;;
22652;SDS011;11493;43.344;26.226;2023-02-28T14:02:57;36.67;;;20.70;;
22652;SDS011;11493;43.344;26.226;2023-02-28T14:05:42;32.72;;;19.15;;
22652;SDS011;11493;43.344;26.226;2023-02-28T14:08:16;26.30;;;16.92;;
22652;SDS011;11493;43.344;26.226;2023-02-28T14:10:52;42.60;;;25.10;;
22652;SDS011;11493;43.344;26.226;2023-02-28T14:13:37;34.95;;;18.40;;
22652;SDS011;11493;43.344;26.226;2023-02-28T14:16:13;32.03;;;18.40;;
22652;SDS011;11493;43.344;26.226;2023-02-28T14:18:52;47.10;;;22.83;;
22652;SDS011;11493;43.344;26.226;2023-02-28T14:33:22;53.28;;;27.05;;
22652;SDS011;11493;43.344;26.226;2023-02-28T14:38:40;41.05;;;23.08;;
22652;SDS011;11493;43.344;26.226;2023-02-28T14:41:32;26.98;;;16.23;;
22652;SDS011;11493;43.344;26.226;2023-02-28T14:46:41;79.78;;;48.22;;
22652;SDS011;11493;43.344;26.226;2023-02-28T14:49:13;55.92;;;29.50;;
22652;SDS011;11493;43.344;26.226;2023-02-28T14:51:44;33.50;;;20.00;;
22652;SDS011;11493;43.344;26.226;2023-02-28T14:54:14;43.00;;;25.48;;
22652;SDS011;11493;43.344;26.226;2023-02-28T14:56:43;30.95;;;20.45;;
22652;SDS011;11493;43.344;26.226;2023-02-28T14:59:24;25.23;;;16.35;;
22652;SDS011;11493;43.344;26.226;2023-02-28T15:02:13;24.75;;;14.75;;
22652;SDS011;11493;43.344;26.226;2023-02-28T15:04:40;29.27;;;16.92;;
22652;SDS011;11493;43.344;26.226;2023-02-28T15:07:09;103.88;;;62.78;;
22652;SDS011;11493;43.344;26.226;2023-02-28T15:09:36;88.93;;;54.75;;
22652;SDS011;11493;43.344;26.226;2023-02-28T15:12:03;44.17;;;24.77;;
22652;SDS011;11493;43.344;26.226;2023-02-28T15:14:30;44.63;;;23.15;;
22652;SDS011;11493;43.344;26.226;2023-02-28T15:17:02;48.45;;;21.25;;
22652;SDS011;11493;43.344;26.226;2023-02-28T15:19:36;38.90;;;18.75;;
22652;SDS011;11493;43.344;26.226;2023-02-28T15:24:49;40.75;;;24.98;;
22652;SDS011;11493;43.344;26.226;2023-02-28T15:27:20;29.92;;;17.08;;
22652;SDS011;11493;43.344;26.226;2023-02-28T15:29:56;36.63;;;19.48;;
22652;SDS011;11493;43.344;26.226;2023-02-28T15:32:36;41.08;;;24.88;;
22652;SDS011;11493;43.344;26.226;2023-02-28T15:37:56;40.80;;;23.95;;
22652;SDS011;11493;43.344;26.226;2023-02-28T15:40:28;37.10;;;22.00;;
22652;SDS011;11493;43.344;26.226;2023-02-28T15:43:46;42.15;;;23.58;;
22652;SDS011;11493;43.344;26.226;2023-02-28T15:48:36;28.55;;;18.63;;
22652;SDS011;11493;43.344;26.226;2023-02-28T15:51:29;29.75;;;16.95;;
22652;SDS011;11493;43.344;26.226;2023-02-28T15:54:07;75.07;;;43.10;;
22652;SDS011;11493;43.344;26.226;2023-02-28T15:56:43;33.70;;;18.15;;
22652;SDS011;11493;43.344;26.226;2023-02-28T15:59:14;37.42;;;22.63;;
22652;SDS011;11493;43.344;26.226;2023-02-28T16:01:44;32.97;;;20.08;;
22652;SDS011;11493;43.344;26.226;2023-02-28T16:04:15;35.45;;;20.48;;
22652;SDS011;11493;43.344;26.226;2023-02-28T16:06:45;37.15;;;19.98;;
22652;SDS011;11493;43.344;26.226;2023-02-28T16:09:13;36.40;;;23.88;;
22652;SDS011;11493;43.344;26.226;2023-02-28T16:11:43;27.05;;;17.63;;
22652;SDS011;11493;43.344;26.226;2023-02-28T16:14:20;35.72;;;20.15;;
22652;SDS011;11493;43.344;26.226;2023-02-28T16:16:54;63.25;;;34.58;;
22652;SDS011;11493;43.344;26.226;2023-02-28T16:19:23;44.40;;;26.92;;
22652;SDS011;11493;43.344;26.226;2023-02-28T16:21:51;33.00;;;22.15;;
22652;SDS011;11493;43.344;26.226;2023-02-28T16:24:18;31.33;;;17.52;;
22652;SDS011;11493;43.344;26.226;2023-02-28T16:26:46;26.08;;;18.17;;
22652;SDS011;11493;43.344;26.226;2023-02-28T16:29:25;44.05;;;25.95;;
22652;SDS011;11493;43.344;26.226;2023-02-28T16:31:55;34.47;;;22.42;;
22652;SDS011;11493;43.344;26.226;2023-02-28T16:34:23;30.50;;;17.05;;
22652;SDS011;11493;43.344;26.226;2023-02-28T16:36:50;55.00;;;29.92;;
22652;SDS011;11493;43.344;26.226;2023-02-28T16:39:17;36.28;;;19.98;;
22652;SDS011;11493;43.344;26.226;2023-02-28T16:41:47;32.15;;;20.30;;
22652;SDS011;11493;43.344;26.226;2023-02-28T16:44:29;35.30;;;20.00;;
22652;SDS011;11493;43.344;26.226;2023-02-28T16:47:01;46.20;;;27.27;;
22652;SDS011;11493;43.344;26.226;2023-02-28T16:49:29;38.53;;;23.50;;
22652;SDS011;11493;43.344;26.226;2023-02-28T16:51:56;33.83;;;18.55;;
22652;SDS011;11493;43.344;26.226;2023-02-28T16:54:23;34.22;;;21.40;;
22652;SDS011;11493;43.344;26.226;2023-02-28T16:56:50;33.85;;;18.23;;
22652;SDS011;11493;43.344;26.226;2023-02-28T16:59:19;41.53;;;20.73;;
22652;SDS011;11493;43.344;26.226;2023-02-28T17:01:49;42.38;;;23.45;;
22652;SDS011;11493;43.344;26.226;2023-02-28T17:04:17;68.25;;;34.38;;
22652;SDS011;11493;43.344;26.226;2023-02-28T17:06:44;46.88;;;25.05;;
22652;SDS011;11493;43.344;26.226;2023-02-28T17:09:19;65.45;;;35.08;;
22652;SDS011;11493;43.344;26.226;2023-02-28T17:11:56;52.28;;;29.73;;
22652;SDS011;11493;43.344;26.226;2023-02-28T17:14:23;53.30;;;31.58;;
22652;SDS011;11493;43.344;26.226;2023-02-28T17:16:50;43.92;;;23.88;;
22652;SDS011;11493;43.344;26.226;2023-02-28T17:19:17;40.45;;;21.73;;
22652;SDS011;11493;43.344;26.226;2023-02-28T17:21:45;63.05;;;33.95;;
22652;SDS011;11493;43.344;26.226;2023-02-28T17:24:12;46.63;;;28.20;;
22652;SDS011;11493;43.344;26.226;2023-02-28T17:26:55;45.13;;;25.23;;
22652;SDS011;11493;43.344;26.226;2023-02-28T17:29:22;44.20;;;25.15;;
22652;SDS011;11493;43.344;26.226;2023-02-28T17:31:51;61.40;;;31.98;;
22652;SDS011;11493;43.344;26.226;2023-02-28T17:34:18;53.35;;;28.05;;
22652;SDS011;11493;43.344;26.226;2023-02-28T17:36:47;51.55;;;26.65;;